createdAt,value
2023-05-18T00:01:27.798Z,8.41
2023-05-18T00:03:56.120Z,8.41
2023-05-18T00:06:25.349Z,8.43
2023-05-18T00:08:53.011Z,8.44
2023-05-18T00:11:21.722Z,8.43
2023-05-18T00:13:49.579Z,8.42
2023-05-18T00:16:17.285Z,8.40
2023-05-18T00:18:45.037Z,8.38
2023-05-18T00:21:23.025Z,8.38
2023-05-18T00:23:52.274Z,8.37
2023-05-18T00:26:19.882Z,8.36
2023-05-18T00:28:47.516Z,8.35
2023-05-18T00:31:15.028Z,8.35
2023-05-18T00:33:45.226Z,8.34
2023-05-18T00:36:12.813Z,8.32
2023-05-18T00:38:40.929Z,8.31
2023-05-18T00:41:08.615Z,8.29
2023-05-18T00:43:36.426Z,8.26
2023-05-18T00:46:04.094Z,8.25
2023-05-18T00:48:31.666Z,8.24
2023-05-18T00:50:59.311Z,8.20
2023-05-18T00:53:26.884Z,8.21
2023-05-18T00:55:54.447Z,8.21
2023-05-18T00:58:22.226Z,8.22
2023-05-18T01:00:50.258Z,8.22
2023-05-18T01:03:20.223Z,8.20
2023-05-18T01:05:55.733Z,8.16
2023-05-18T01:08:25.949Z,8.14
2023-05-18T01:11:02.324Z,8.13
2023-05-18T01:14:06.267Z,8.12
2023-05-18T01:16:43.828Z,8.12
2023-05-18T01:19:28.532Z,8.12
2023-05-18T01:22:09.045Z,8.09
2023-05-18T01:24:48.595Z,8.07
2023-05-18T01:27:19.735Z,8.05
2023-05-18T01:29:48.617Z,8.03
2023-05-18T01:32:22.337Z,8.00
2023-05-18T01:34:50.473Z,7.97
2023-05-18T01:37:18.028Z,7.93
2023-05-18T01:39:45.774Z,7.90
2023-05-18T01:42:21.265Z,7.86
2023-05-18T01:44:53.775Z,7.83
2023-05-18T01:47:22.181Z,7.80
2023-05-18T01:50:05.807Z,7.77
2023-05-18T01:52:40.082Z,7.74
2023-05-18T01:55:10.001Z,7.70
2023-05-18T01:57:41.412Z,7.67
2023-05-18T02:00:10.125Z,7.63
2023-05-18T02:02:37.748Z,7.58
2023-05-18T02:05:07.903Z,7.55
2023-05-18T02:07:35.520Z,7.51
2023-05-18T02:10:03.343Z,7.47
2023-05-18T02:12:30.892Z,7.45
2023-05-18T02:14:59.999Z,7.43
2023-05-18T02:17:28.803Z,7.42
2023-05-18T02:19:56.874Z,7.40
2023-05-18T02:22:24.397Z,7.38
2023-05-18T02:24:54.326Z,7.37
2023-05-18T02:27:22.086Z,7.36
2023-05-18T02:29:49.731Z,7.33
2023-05-18T02:32:17.601Z,7.32
2023-05-18T02:34:46.258Z,7.29
2023-05-18T02:37:14.472Z,7.27
2023-05-18T02:39:42.113Z,7.25
2023-05-18T02:42:09.639Z,7.25
2023-05-18T02:44:37.199Z,7.23
2023-05-18T02:47:05.066Z,7.22
2023-05-18T02:49:33.467Z,7.20
2023-05-18T02:52:01.163Z,7.18
2023-05-18T02:54:28.974Z,7.15
2023-05-18T02:56:56.914Z,7.13
2023-05-18T02:59:24.520Z,7.12
2023-05-18T03:01:52.726Z,7.12
2023-05-18T03:04:22.135Z,7.11
2023-05-18T03:06:53.121Z,7.12
2023-05-18T03:09:20.733Z,7.13
2023-05-18T03:11:49.225Z,7.15
2023-05-18T03:14:16.810Z,7.17
2023-05-18T03:16:45.049Z,7.19
2023-05-18T03:19:14.392Z,7.19
2023-05-18T03:21:43.959Z,7.21
2023-05-18T03:24:14.564Z,7.24
2023-05-18T03:26:44.506Z,7.26
2023-05-18T03:29:13.839Z,7.27
2023-05-18T03:31:41.799Z,7.29
2023-05-18T03:34:11.796Z,7.33
2023-05-18T03:36:40.724Z,7.36
2023-05-18T03:39:08.629Z,7.39
2023-05-18T03:41:37.436Z,7.43
2023-05-18T03:44:04.987Z,7.48
2023-05-18T03:46:32.663Z,7.54
2023-05-18T03:49:03.140Z,7.60
2023-05-18T03:51:31.312Z,7.66
2023-05-18T03:53:58.852Z,7.71
2023-05-18T03:56:26.536Z,7.76
2023-05-18T03:58:55.848Z,7.81
2023-05-18T04:01:30.144Z,7.87
2023-05-18T04:03:58.177Z,7.92
2023-05-18T04:06:26.592Z,7.98
2023-05-18T04:08:55.330Z,8.05
2023-05-18T04:11:22.833Z,8.10
2023-05-18T04:13:50.819Z,8.18
2023-05-18T04:16:19.416Z,8.24
2023-05-18T04:18:47.271Z,8.30
2023-05-18T04:21:16.071Z,8.36
2023-05-18T04:23:44.442Z,8.42
2023-05-18T04:26:11.990Z,8.48
2023-05-18T04:28:39.496Z,8.52
2023-05-18T04:31:07.062Z,8.60
2023-05-18T04:33:34.576Z,8.67
2023-05-18T04:36:04.977Z,8.72
2023-05-18T04:38:34.818Z,8.75
2023-05-18T04:41:06.634Z,8.81
2023-05-18T04:43:36.746Z,8.86
2023-05-18T04:46:07.028Z,8.94
2023-05-18T04:48:34.558Z,9.02
2023-05-18T04:51:05.621Z,9.10
2023-05-18T04:53:33.613Z,9.16
2023-05-18T04:56:02.291Z,9.24
2023-05-18T04:58:30.815Z,9.34
2023-05-18T05:00:58.557Z,9.44
2023-05-18T05:03:26.423Z,9.52
2023-05-18T05:05:54.265Z,9.56
2023-05-18T05:08:22.159Z,9.62
2023-05-18T05:10:49.632Z,9.68
2023-05-18T05:13:17.124Z,9.75
2023-05-18T05:15:44.643Z,9.83
2023-05-18T05:18:21.872Z,9.90
2023-05-18T05:20:50.455Z,9.98
2023-05-18T05:23:18.052Z,10.06
2023-05-18T05:25:46.958Z,10.12
2023-05-18T05:28:14.537Z,10.18
2023-05-18T05:30:42.214Z,10.27
2023-05-18T05:33:10.285Z,10.34
2023-05-18T05:35:43.092Z,10.41
2023-05-18T05:38:12.632Z,10.48
2023-05-18T05:40:43.553Z,10.52
2023-05-18T05:43:11.143Z,10.60
2023-05-18T05:45:39.387Z,10.68
2023-05-18T05:48:07.068Z,10.73
2023-05-18T05:50:34.669Z,10.81
2023-05-18T05:53:03.509Z,10.88
2023-05-18T05:55:41.023Z,10.97
2023-05-18T05:58:09.472Z,11.08
2023-05-18T06:00:39.282Z,11.19
2023-05-18T06:03:08.444Z,11.28
2023-05-18T06:05:40.138Z,11.38
2023-05-18T06:08:09.176Z,11.49
2023-05-18T06:10:39.192Z,11.61
2023-05-18T06:13:07.473Z,11.73
2023-05-18T06:15:35.432Z,11.83
2023-05-18T06:18:03.377Z,11.89
2023-05-18T06:20:31.046Z,11.94
2023-05-18T06:22:59.834Z,12.00
2023-05-18T06:25:27.537Z,12.04
2023-05-18T06:27:55.737Z,12.12
2023-05-18T06:30:40.333Z,12.20
2023-05-18T06:33:11.374Z,12.25
2023-05-18T06:35:43.180Z,12.28
2023-05-18T06:38:19.075Z,12.34
2023-05-18T06:40:50.842Z,12.40
2023-05-18T06:43:20.049Z,12.44
2023-05-18T06:45:52.236Z,12.49
2023-05-18T06:48:38.631Z,12.56
2023-05-18T06:51:06.274Z,12.64
2023-05-18T06:53:33.800Z,12.73
2023-05-18T06:56:01.505Z,12.82
2023-05-18T06:58:29.212Z,12.87
2023-05-18T07:00:57.834Z,12.96
2023-05-18T07:03:26.738Z,13.18
2023-05-18T07:05:55.429Z,13.46
2023-05-18T07:08:24.749Z,13.59
2023-05-18T07:10:52.369Z,13.65
2023-05-18T07:13:19.833Z,13.69
2023-05-18T07:15:47.584Z,13.75
2023-05-18T07:18:15.373Z,13.81
2023-05-18T07:20:43.119Z,13.89
2023-05-18T07:23:10.800Z,13.96
2023-05-18T07:25:41.363Z,14.03
2023-05-18T07:28:08.971Z,14.06
2023-05-18T07:30:36.941Z,14.07
2023-05-18T07:33:04.543Z,14.11
2023-05-18T07:35:33.312Z,14.18
2023-05-18T07:38:01.073Z,14.24
2023-05-18T07:40:28.783Z,14.34
2023-05-18T07:42:56.441Z,14.43
2023-05-18T07:45:24.327Z,14.52
2023-05-18T07:47:51.977Z,14.62
2023-05-18T07:50:19.634Z,14.73
2023-05-18T07:52:47.408Z,14.99
2023-05-18T07:55:17.348Z,15.24
2023-05-18T07:57:45.140Z,15.43
2023-05-18T08:00:14.811Z,15.57
2023-05-18T08:02:43.497Z,15.65
2023-05-18T08:05:12.108Z,15.67
2023-05-18T08:07:39.613Z,15.70
2023-05-18T08:10:07.655Z,15.71
2023-05-18T08:12:36.842Z,15.74
2023-05-18T08:15:05.162Z,15.86
2023-05-18T08:17:32.678Z,15.92
2023-05-18T08:20:00.268Z,15.95
2023-05-18T08:22:30.915Z,16.02
2023-05-18T08:25:00.883Z,16.12
2023-05-18T08:27:29.026Z,16.23
2023-05-18T08:29:56.762Z,16.38
2023-05-18T08:32:26.733Z,16.48
2023-05-18T08:34:55.293Z,16.50
2023-05-18T08:37:29.208Z,16.54
2023-05-18T08:39:57.797Z,16.61
2023-05-18T08:43:10.625Z,16.67
2023-05-18T08:45:55.770Z,16.87
2023-05-18T08:48:27.237Z,17.10
2023-05-18T08:50:58.887Z,17.27
2023-05-18T08:53:26.702Z,17.45
2023-05-18T08:55:54.711Z,17.73
2023-05-18T08:58:32.703Z,17.85
2023-05-18T09:01:00.949Z,18.02
2023-05-18T09:03:30.575Z,18.06
2023-05-18T09:06:00.324Z,18.06
2023-05-18T09:08:29.892Z,18.06
2023-05-18T09:10:58.894Z,18.02
2023-05-18T09:13:27.904Z,18.06
2023-05-18T09:15:55.578Z,18.18
2023-05-18T09:18:25.523Z,18.27
2023-05-18T09:20:54.371Z,18.34
2023-05-18T09:23:22.012Z,18.44
2023-05-18T09:25:52.301Z,18.65
2023-05-18T09:28:47.644Z,18.90
2023-05-18T09:31:19.505Z,19.11
2023-05-18T09:33:48.089Z,19.28
2023-05-18T09:36:16.314Z,19.38
2023-05-18T09:38:47.132Z,19.58
2023-05-18T09:41:19.370Z,19.78
2023-05-18T09:43:53.134Z,20.04
2023-05-18T09:46:21.951Z,20.33
2023-05-18T09:48:52.752Z,20.61
2023-05-18T09:51:24.926Z,20.83
2023-05-18T09:53:57.052Z,21.07
2023-05-18T09:56:27.065Z,21.27
2023-05-18T09:59:07.873Z,21.36
2023-05-18T10:01:35.586Z,21.32
2023-05-18T10:04:04.835Z,21.28
2023-05-18T10:06:34.148Z,21.19
2023-05-18T10:09:04.574Z,21.27
2023-05-18T10:11:33.000Z,21.46
2023-05-18T10:14:00.567Z,21.64
2023-05-18T10:16:29.580Z,21.89
2023-05-18T10:18:57.501Z,22.21
2023-05-18T10:21:28.899Z,22.34
2023-05-18T10:23:57.708Z,22.37
2023-05-18T10:26:30.399Z,22.29
2023-05-18T10:28:59.101Z,22.22
2023-05-18T10:31:30.653Z,22.16
2023-05-18T10:33:59.474Z,22.13
2023-05-18T10:36:30.228Z,22.13
2023-05-18T10:39:03.720Z,22.33
2023-05-18T10:41:33.408Z,22.61
2023-05-18T10:44:04.003Z,22.80
2023-05-18T10:46:33.797Z,23.16
2023-05-18T10:49:05.760Z,23.54
2023-05-18T10:51:35.014Z,23.88
2023-05-18T10:54:13.270Z,24.26
2023-05-18T10:56:47.881Z,24.48
2023-05-18T10:59:18.278Z,24.61
2023-05-18T11:01:48.770Z,24.84
2023-05-18T11:04:22.146Z,25.21
2023-05-18T11:07:04.993Z,25.31
2023-05-18T11:09:37.075Z,25.03
2023-05-18T11:12:12.109Z,24.72
2023-05-18T11:14:55.193Z,24.32
2023-05-18T11:17:25.699Z,24.06
2023-05-18T11:20:13.202Z,24.12
2023-05-18T11:22:47.746Z,24.41
2023-05-18T11:25:31.326Z,24.40
2023-05-18T11:28:02.097Z,24.76
2023-05-18T11:30:45.007Z,25.26
2023-05-18T11:33:25.101Z,25.19
2023-05-18T11:36:13.623Z,25.07
2023-05-18T11:39:04.842Z,25.29
2023-05-18T11:41:32.681Z,25.61
2023-05-18T11:44:15.472Z,25.57
2023-05-18T11:46:58.937Z,25.63
2023-05-18T11:49:28.069Z,25.75
2023-05-18T11:51:58.718Z,25.88
2023-05-18T11:54:28.009Z,25.91
2023-05-18T11:56:56.174Z,25.65
2023-05-18T11:59:57.068Z,25.45
2023-05-18T12:02:32.769Z,25.23
2023-05-18T12:05:03.055Z,25.31
2023-05-18T12:07:32.228Z,25.51
2023-05-18T12:10:10.918Z,25.73
2023-05-18T12:12:39.950Z,26.12
2023-05-18T12:15:09.588Z,26.56
2023-05-18T12:17:53.646Z,26.86
2023-05-18T12:20:28.482Z,27.23
2023-05-18T12:22:56.322Z,27.68
2023-05-18T12:25:27.142Z,27.77
2023-05-18T12:27:56.648Z,27.71
2023-05-18T12:30:34.419Z,27.50
2023-05-18T12:33:06.448Z,27.10
2023-05-18T12:35:34.512Z,26.89
2023-05-18T12:38:03.384Z,26.76
2023-05-18T12:40:44.891Z,26.72
2023-05-18T12:43:13.414Z,26.64
2023-05-18T12:45:44.331Z,26.68
2023-05-18T12:48:12.944Z,26.61
2023-05-18T12:50:48.833Z,26.45
2023-05-18T12:53:17.944Z,26.47
2023-05-18T12:55:49.111Z,26.57
2023-05-18T12:58:19.859Z,26.76
2023-05-18T13:00:50.772Z,26.98
2023-05-18T13:03:22.986Z,27.18
2023-05-18T13:06:10.205Z,27.30
2023-05-18T13:08:37.996Z,27.45
2023-05-18T13:11:13.655Z,27.63
2023-05-18T13:14:03.091Z,27.90
2023-05-18T13:16:34.302Z,28.17
2023-05-18T13:19:06.506Z,28.43
2023-05-18T13:21:36.102Z,28.58
2023-05-18T13:24:04.780Z,28.41
2023-05-18T13:26:32.974Z,28.47
2023-05-18T13:29:01.955Z,28.68
2023-05-18T13:31:29.773Z,28.63
2023-05-18T13:33:58.963Z,28.30
2023-05-18T13:36:29.888Z,27.81
2023-05-18T13:38:57.627Z,27.32
2023-05-18T13:41:25.798Z,27.16
2023-05-18T13:43:53.544Z,27.18
2023-05-18T13:46:21.642Z,27.17
2023-05-18T13:48:49.293Z,27.06
2023-05-18T13:51:16.912Z,26.93
2023-05-18T13:53:44.655Z,26.84
2023-05-18T13:56:12.389Z,26.69
2023-05-18T13:58:39.901Z,26.56
2023-05-18T14:01:12.736Z,26.46
2023-05-18T14:03:41.929Z,26.42
2023-05-18T14:06:09.858Z,26.28
2023-05-18T14:08:37.666Z,26.20
2023-05-18T14:11:05.629Z,26.10
2023-05-18T14:13:33.238Z,25.92
2023-05-18T14:16:01.677Z,25.86
2023-05-18T14:18:29.431Z,25.82
2023-05-18T14:21:01.906Z,25.74
2023-05-18T14:23:29.980Z,25.63
2023-05-18T14:25:57.648Z,25.56
2023-05-18T14:28:25.308Z,25.53
2023-05-18T14:30:52.984Z,25.45
2023-05-18T14:33:20.516Z,25.26
2023-05-18T14:35:48.461Z,24.98
2023-05-18T14:38:16.048Z,24.66
2023-05-18T14:40:43.562Z,24.36
2023-05-18T14:43:11.255Z,24.09
2023-05-18T14:45:38.834Z,23.84
2023-05-18T14:48:06.673Z,23.61
2023-05-18T14:50:37.444Z,23.33
2023-05-18T14:53:06.245Z,23.15
2023-05-18T14:55:33.791Z,23.00
2023-05-18T14:58:03.648Z,22.89
2023-05-18T15:00:31.356Z,22.73
2023-05-18T15:02:59.602Z,22.53
2023-05-18T15:05:27.635Z,22.27
2023-05-18T15:07:55.217Z,22.04
2023-05-18T15:10:24.057Z,21.89
2023-05-18T15:12:51.645Z,21.74
2023-05-18T15:15:19.238Z,21.62
2023-05-18T15:17:46.794Z,21.52
2023-05-18T15:20:14.623Z,21.42
2023-05-18T15:22:42.349Z,21.33
2023-05-18T15:25:11.316Z,21.26
2023-05-18T15:27:38.848Z,21.19
2023-05-18T15:30:11.428Z,21.08
2023-05-18T15:32:40.393Z,20.98
2023-05-18T15:35:09.159Z,20.89
2023-05-18T15:37:36.776Z,20.81
2023-05-18T15:40:05.549Z,20.70
2023-05-18T15:42:34.500Z,20.61
2023-05-18T15:45:03.544Z,20.47
2023-05-18T15:47:31.131Z,20.32
2023-05-18T15:49:58.884Z,20.24
2023-05-18T15:52:26.716Z,20.17
2023-05-18T15:54:54.323Z,20.07
2023-05-18T15:57:22.192Z,20.00
2023-05-18T15:59:49.744Z,19.94
2023-05-18T16:02:17.263Z,19.87
2023-05-18T16:04:45.299Z,19.79
2023-05-18T16:07:15.142Z,19.70
2023-05-18T16:09:42.855Z,19.62
2023-05-18T16:12:10.416Z,19.54
2023-05-18T16:14:38.043Z,19.42
2023-05-18T16:17:05.825Z,19.32
2023-05-18T16:19:33.969Z,19.21
2023-05-18T16:22:01.445Z,19.07
2023-05-18T16:24:29.061Z,18.99
2023-05-18T16:26:56.904Z,18.89
2023-05-18T16:29:24.623Z,18.76
2023-05-18T16:31:52.283Z,18.67
2023-05-18T16:34:20.104Z,18.57
2023-05-18T16:36:47.777Z,18.45
2023-05-18T16:39:15.369Z,18.31
2023-05-18T16:41:43.105Z,18.21
2023-05-18T16:44:10.638Z,18.14
2023-05-18T16:46:38.253Z,18.07
2023-05-18T16:49:05.977Z,18.00
2023-05-18T16:51:33.723Z,17.94
2023-05-18T16:54:01.649Z,17.88
2023-05-18T16:56:29.650Z,17.81
2023-05-18T16:58:57.423Z,17.76
2023-05-18T17:01:28.500Z,17.68
2023-05-18T17:03:57.626Z,17.60
2023-05-18T17:06:26.382Z,17.54
2023-05-18T17:08:58.423Z,17.50
2023-05-18T17:11:33.997Z,17.44
2023-05-18T17:14:03.128Z,17.37
2023-05-18T17:16:32.976Z,17.31
2023-05-18T17:19:01.001Z,17.24
2023-05-18T17:21:30.556Z,17.17
2023-05-18T17:23:58.937Z,17.12
2023-05-18T17:26:33.022Z,17.06
2023-05-18T17:29:01.189Z,17.00
2023-05-18T17:31:29.087Z,16.94
2023-05-18T17:33:56.842Z,16.88
2023-05-18T17:36:25.430Z,16.81
2023-05-18T17:38:52.962Z,16.74
2023-05-18T17:41:22.189Z,16.67
2023-05-18T17:43:49.790Z,16.60
2023-05-18T17:48:45.285Z,16.42
2023-05-18T17:51:13.532Z,16.33
2023-05-18T17:53:42.774Z,16.22
2023-05-18T17:56:12.428Z,16.12
2023-05-18T17:58:40.087Z,16.00
2023-05-18T18:01:08.839Z,15.89
2023-05-18T18:03:37.793Z,15.79
2023-05-18T18:06:06.673Z,15.70
2023-05-18T18:08:34.532Z,15.60
2023-05-18T18:11:02.749Z,15.51
2023-05-18T18:13:30.362Z,15.43
2023-05-18T18:15:57.973Z,15.36
2023-05-18T18:18:26.344Z,15.30
2023-05-18T18:20:53.873Z,15.22
2023-05-18T18:23:21.906Z,15.15
2023-05-18T18:25:49.438Z,15.06
2023-05-18T18:28:16.983Z,14.99
2023-05-18T18:30:44.791Z,14.93
2023-05-18T18:33:16.383Z,14.86
2023-05-18T18:35:43.921Z,14.76
2023-05-18T18:38:12.777Z,14.68
2023-05-18T18:40:43.956Z,14.61
2023-05-18T18:43:11.682Z,14.53
2023-05-18T18:45:39.340Z,14.46
2023-05-18T18:48:06.966Z,14.39
2023-05-18T18:50:34.621Z,14.29
2023-05-18T18:53:02.384Z,14.20
2023-05-18T18:55:30.302Z,14.13
2023-05-18T18:57:59.462Z,14.05
2023-05-18T19:00:27.520Z,13.96
2023-05-18T19:02:55.129Z,13.87
2023-05-18T19:05:24.538Z,13.80
2023-05-18T19:07:55.488Z,13.72
2023-05-18T19:10:23.335Z,13.64
2023-05-18T19:12:51.694Z,13.57
2023-05-18T19:15:21.773Z,13.51
2023-05-18T19:17:54.153Z,13.45
2023-05-18T19:20:23.236Z,13.40
2023-05-18T19:22:53.275Z,13.35
2023-05-18T19:25:24.499Z,13.28
2023-05-18T19:27:54.686Z,13.23
2023-05-18T19:30:23.516Z,13.19
2023-05-18T19:32:52.966Z,13.14
2023-05-18T19:35:23.516Z,13.10
2023-05-18T19:37:51.928Z,13.05
2023-05-18T19:40:21.965Z,12.99
2023-05-18T19:42:50.316Z,12.92
2023-05-18T19:45:17.983Z,12.87
2023-05-18T19:47:45.523Z,12.83
2023-05-18T19:50:13.115Z,12.80
2023-05-18T19:52:41.249Z,12.75
2023-05-18T19:55:09.497Z,12.70
2023-05-18T19:57:37.116Z,12.64
2023-05-18T20:00:07.289Z,12.61
2023-05-18T20:02:35.065Z,12.57
2023-05-18T20:05:05.538Z,12.53
2023-05-18T20:07:33.856Z,12.48
2023-05-18T20:10:01.412Z,12.44
2023-05-18T20:12:29.028Z,12.38
2023-05-18T20:14:56.894Z,12.36
2023-05-18T20:17:26.001Z,12.35
2023-05-18T20:19:53.623Z,12.33
2023-05-18T20:22:22.049Z,12.30
2023-05-18T20:24:49.644Z,12.27
2023-05-18T20:27:17.262Z,12.24
2023-05-18T20:29:45.986Z,12.22
2023-05-18T20:32:13.596Z,12.18
2023-05-18T20:34:44.230Z,12.13
2023-05-18T20:37:13.947Z,12.09
2023-05-18T20:39:50.246Z,12.06
2023-05-18T20:42:22.253Z,12.03
2023-05-18T20:44:52.389Z,12.02
2023-05-18T20:47:21.685Z,11.98
2023-05-18T20:49:49.577Z,11.94
2023-05-18T20:52:17.268Z,11.91
2023-05-18T20:54:44.813Z,11.89
2023-05-18T20:57:12.461Z,11.85
2023-05-18T20:59:39.953Z,11.82
2023-05-18T21:02:07.559Z,11.78
2023-05-18T21:04:35.405Z,11.76
2023-05-18T21:07:05.342Z,11.75
2023-05-18T21:09:34.323Z,11.73
2023-05-18T21:12:02.562Z,11.72
2023-05-18T21:14:30.750Z,11.70
2023-05-18T21:16:58.239Z,11.68
2023-05-18T21:19:26.061Z,11.65
2023-05-18T21:21:53.854Z,11.63
2023-05-18T21:24:21.526Z,11.61
2023-05-18T21:26:49.390Z,11.57
2023-05-18T21:29:17.305Z,11.55
2023-05-18T21:31:44.976Z,11.51
2023-05-18T21:34:13.676Z,11.46
2023-05-18T21:36:41.489Z,11.44
2023-05-18T21:39:10.009Z,11.43
2023-05-18T21:41:40.162Z,11.42
2023-05-18T21:44:08.893Z,11.42
2023-05-18T21:46:37.023Z,11.41
2023-05-18T21:49:07.474Z,11.39
2023-05-18T21:51:36.421Z,11.39
2023-05-18T21:54:04.357Z,11.38
2023-05-18T21:56:34.509Z,11.38
2023-05-18T21:59:02.583Z,11.38
2023-05-18T22:01:30.270Z,11.38
2023-05-18T22:03:58.417Z,11.38
2023-05-18T22:06:35.801Z,11.39
2023-05-18T22:09:03.811Z,11.39
2023-05-18T22:11:31.994Z,11.39
2023-05-18T22:13:59.434Z,11.39
2023-05-18T22:16:27.261Z,11.38
2023-05-18T22:18:54.962Z,11.36
2023-05-18T22:21:22.604Z,11.37
2023-05-18T22:23:50.384Z,11.37
2023-05-18T22:26:20.014Z,11.38
2023-05-18T22:28:47.523Z,11.37
2023-05-18T22:31:15.599Z,11.39
2023-05-18T22:33:43.205Z,11.39
2023-05-18T22:36:10.760Z,11.38
2023-05-18T22:38:38.399Z,11.38
2023-05-18T22:41:06.203Z,11.39
2023-05-18T22:43:33.756Z,11.39
2023-05-18T22:46:01.807Z,11.38
2023-05-18T22:48:31.802Z,11.39
2023-05-18T22:51:00.712Z,11.40
2023-05-18T22:53:28.273Z,11.41
2023-05-18T22:55:56.508Z,11.40
2023-05-18T22:58:24.836Z,11.41
2023-05-18T23:00:52.853Z,11.43
2023-05-18T23:03:20.496Z,11.44
2023-05-18T23:05:48.279Z,11.43
2023-05-18T23:08:16.166Z,11.41
2023-05-18T23:10:46.964Z,11.38
2023-05-18T23:13:16.078Z,11.39
2023-05-18T23:15:44.172Z,11.39
2023-05-18T23:18:12.423Z,11.39
2023-05-18T23:20:39.973Z,11.39
2023-05-18T23:23:08.679Z,11.39
2023-05-18T23:25:36.290Z,11.37
2023-05-18T23:28:03.935Z,11.34
2023-05-18T23:30:32.013Z,11.35
2023-05-18T23:33:00.819Z,11.35
2023-05-18T23:35:29.186Z,11.36
2023-05-18T23:37:58.045Z,11.37
2023-05-18T23:40:25.866Z,11.35
2023-05-18T23:42:53.862Z,11.33
2023-05-18T23:45:23.690Z,11.32
2023-05-18T23:47:53.051Z,11.31
2023-05-18T23:50:21.357Z,11.30
2023-05-18T23:52:52.960Z,11.30
2023-05-18T23:55:23.897Z,11.29
2023-05-18T23:57:52.217Z,11.29
